Time;durP1;ratioP1;P1;durP2;ratioP2;P2;SDS_P1;SDS_P2;PMS_P1;PMS_P2;Temp;Humidity;BMP_temperature;BMP_pressure;BME280_temperature;BME280_humidity;BME280_pressure;Samples;Min_cycle;Max_cycle;Signal;HPM_P1;HPM_P2
2023/04/07 00:01:17;;;;;;;9.40;2.33;;;;;;;;;;5056655;28;20041;-42
2023/04/07 00:03:42;;;;;;;2.65;2.17;;;;;;;;;;5059428;28;20059;-42
2023/04/07 00:06:08;;;;;;;3.50;2.20;;;;;;;;;;5059154;28;20045;-41
2023/04/07 00:08:33;;;;;;;5.38;2.90;;;;;;;;;;5060155;28;20024;-41
2023/04/07 00:10:59;;;;;;;2.75;2.50;;;;;;;;;;5061735;28;20036;-42
2023/04/07 00:13:25;;;;;;;6.30;2.90;;;;;;;;;;5063105;28;20045;-42
2023/04/07 00:15:50;;;;;;;4.15;3.00;;;;;;;;;;5057194;28;20045;-42
2023/04/07 00:18:15;;;;;;;3.13;2.83;;;;;;;;;;5045958;28;21064;-42
2023/04/07 00:20:41;;;;;;;4.13;2.80;;;;;;;;;;5042362;28;20048;-41
2023/04/07 00:23:06;;;;;;;2.75;2.40;;;;;;;;;;5047365;28;20385;-42
2023/04/07 00:25:31;;;;;;;3.67;2.40;;;;;;;;;;5045454;28;20087;-41
2023/04/07 00:27:57;;;;;;;5.75;2.97;;;;;;;;;;5047040;28;20044;-41
2023/04/07 00:30:22;;;;;;;4.95;3.10;;;;;;;;;;5047994;28;20072;-41
2023/04/07 00:32:48;;;;;;;8.10;3.15;;;;;;;;;;5037999;28;20374;-42
2023/04/07 00:35:13;;;;;;;10.45;3.50;;;;;;;;;;5043292;28;20030;-41
2023/04/07 00:37:38;;;;;;;6.50;3.28;;;;;;;;;;5042455;28;20051;-44
2023/04/07 00:40:05;;;;;;;5.95;3.10;;;;;;;;;;5041428;28;20029;-40
2023/04/07 00:42:32;;;;;;;7.05;3.05;;;;;;;;;;5043639;28;20106;-43
2023/04/07 00:44:57;;;;;;;5.95;2.83;;;;;;;;;;5042721;28;20025;-42
2023/04/07 00:47:23;;;;;;;6.82;2.88;;;;;;;;;;5046154;28;20078;-41
2023/04/07 00:49:48;;;;;;;2.92;2.63;;;;;;;;;;5044571;28;20090;-42
2023/04/07 00:52:15;;;;;;;4.13;2.80;;;;;;;;;;5046461;28;20167;-42
2023/04/07 00:54:41;;;;;;;3.10;2.80;;;;;;;;;;5044815;28;20102;-41
2023/04/07 00:57:06;;;;;;;4.60;2.80;;;;;;;;;;5041692;28;20884;-45
2023/04/07 00:59:33;;;;;;;4.20;2.60;;;;;;;;;;5046022;28;20552;-42
2023/04/07 01:02:20;;;;;;;3.75;2.72;;;;;;;;;;5046325;28;20037;-41
2023/04/07 01:05:01;;;;;;;4.60;2.70;;;;;;;;;;5043743;28;20024;-44
2023/04/07 01:07:34;;;;;;;13.98;3.03;;;;;;;;;;5057781;28;20604;-42
2023/04/07 01:10:05;;;;;;;4.40;3.08;;;;;;;;;;5057367;28;20389;-41
2023/04/07 01:12:43;;;;;;;4.22;2.78;;;;;;;;;;5056278;28;20106;-44
2023/04/07 01:15:10;;;;;;;4.38;2.65;;;;;;;;;;5059501;28;20041;-41
2023/04/07 01:17:41;;;;;;;2.60;2.40;;;;;;;;;;5062912;28;20374;-42
2023/04/07 01:20:11;;;;;;;4.15;2.67;;;;;;;;;;5054922;28;20485;-45
2023/04/07 01:22:43;;;;;;;3.30;2.75;;;;;;;;;;5060948;28;20147;-41
2023/04/07 01:25:25;;;;;;;;;;;;;;;;;;5060883;28;20670;-42
2023/04/07 01:28:00;;;;;;;7.55;2.92;;;;;;;;;;5056819;28;19921;-41
2023/04/07 01:30:40;;;;;;;4.38;2.72;;;;;;;;;;5057849;28;20036;-44
2023/04/07 01:33:07;;;;;;;4.60;2.25;;;;;;;;;;5057353;28;20021;-45
2023/04/07 01:35:35;;;;;;;6.43;2.65;;;;;;;;;;5059194;28;20078;-41
2023/04/07 01:38:02;;;;;;;5.82;3.13;;;;;;;;;;5058218;28;20107;-41
2023/04/07 01:40:29;;;;;;;3.35;2.28;;;;;;;;;;5070456;28;20136;-41
2023/04/07 01:42:56;;;;;;;6.97;4.00;;;;;;;;;;5062194;28;20028;-42
2023/04/07 01:45:22;;;;;;;3.35;2.50;;;;;;;;;;5056982;28;20049;-43
2023/04/07 01:47:48;;;;;;;5.05;2.50;;;;;;;;;;5065500;28;20423;-42
2023/04/07 01:50:15;;;;;;;5.60;2.50;;;;;;;;;;5056715;28;20431;-41
2023/04/07 01:52:41;;;;;;;2.70;2.50;;;;;;;;;;5057126;28;20024;-43
2023/04/07 01:55:08;;;;;;;4.95;2.50;;;;;;;;;;5056286;28;20093;-41
2023/04/07 01:57:34;;;;;;;2.85;2.13;;;;;;;;;;5055380;28;20191;-43
2023/04/07 01:59:59;;;;;;;7.25;2.13;;;;;;;;;;5060253;28;20546;-41
2023/04/07 02:02:24;;;;;;;3.38;2.40;;;;;;;;;;5055479;28;20037;-42
2023/04/07 02:04:57;;;;;;;2.70;2.38;;;;;;;;;;5063872;28;20028;-40
2023/04/07 02:07:38;;;;;;;1.95;1.73;;;;;;;;;;5039179;28;20044;-41
2023/04/07 02:10:07;;;;;;;2.63;2.08;;;;;;;;;;5038872;28;20025;-41
2023/04/07 02:12:36;;;;;;;2.15;1.95;;;;;;;;;;5042080;28;20029;-42
2023/04/07 02:15:02;;;;;;;2.10;1.90;;;;;;;;;;5040854;28;20080;-40
2023/04/07 02:17:32;;;;;;;2.28;2.03;;;;;;;;;;5040274;28;20081;-41
2023/04/07 02:19:58;;;;;;;3.35;2.05;;;;;;;;;;5042415;28;20083;-41
2023/04/07 02:22:25;;;;;;;5.30;2.38;;;;;;;;;;5039099;28;20044;-41
2023/04/07 02:24:50;;;;;;;9.27;3.05;;;;;;;;;;5038884;28;20024;-41
2023/04/07 02:27:16;;;;;;;2.78;1.90;;;;;;;;;;5047068;28;20045;-41
2023/04/07 02:29:41;;;;;;;6.00;1.85;;;;;;;;;;5038857;28;20017;-41
2023/04/07 02:32:07;;;;;;;5.00;2.50;;;;;;;;;;5046682;28;20052;-42
2023/04/07 02:34:32;;;;;;;2.25;2.00;;;;;;;;;;5042378;28;20033;-41
2023/04/07 02:36:57;;;;;;;2.33;1.90;;;;;;;;;;5043056;28;20482;-43
2023/04/07 02:39:23;;;;;;;2.45;1.40;;;;;;;;;;5043987;28;20017;-42
2023/04/07 02:41:48;;;;;;;2.53;1.90;;;;;;;;;;5048190;28;20086;-41
2023/04/07 02:44:13;;;;;;;2.92;2.00;;;;;;;;;;5044786;28;20013;-41
2023/04/07 02:46:40;;;;;;;3.65;2.03;;;;;;;;;;5045525;28;20041;-41
2023/04/07 02:49:05;;;;;;;3.33;1.67;;;;;;;;;;5046853;28;20048;-41
2023/04/07 02:51:31;;;;;;;2.58;2.15;;;;;;;;;;5045248;28;20512;-41
2023/04/07 02:53:56;;;;;;;2.33;1.90;;;;;;;;;;5043412;28;20033;-42
2023/04/07 02:56:22;;;;;;;6.05;1.70;;;;;;;;;;5042212;28;20036;-41
2023/04/07 02:58:47;;;;;;;3.67;1.88;;;;;;;;;;5047331;28;20050;-41
2023/04/07 03:01:12;;;;;;;4.20;1.60;;;;;;;;;;5039987;28;20040;-41
2023/04/07 03:03:38;;;;;;;1.88;1.73;;;;;;;;;;5044791;28;20031;-42
2023/04/07 03:06:04;;;;;;;1.73;1.60;;;;;;;;;;5051779;28;20044;-42
2023/04/07 03:08:29;;;;;;;3.97;1.75;;;;;;;;;;5064491;28;20029;-41
2023/04/07 03:10:55;;;;;;;1.65;1.52;;;;;;;;;;5056930;28;20040;-41
2023/04/07 03:13:20;;;;;;;2.28;1.58;;;;;;;;;;5048111;28;20049;-45
2023/04/07 03:15:46;;;;;;;2.38;2.17;;;;;;;;;;5047163;28;20171;-42
2023/04/07 03:18:11;;;;;;;5.00;2.22;;;;;;;;;;5047974;28;20552;-41
2023/04/07 03:20:37;;;;;;;2.85;2.28;;;;;;;;;;5047911;28;20591;-41
2023/04/07 03:23:03;;;;;;;2.45;2.25;;;;;;;;;;5049740;28;20147;-41
2023/04/07 03:25:28;;;;;;;3.22;2.70;;;;;;;;;;5046149;28;20504;-41
2023/04/07 03:27:53;;;;;;;3.88;3.00;;;;;;;;;;5046739;28;20443;-43
2023/04/07 03:30:19;;;;;;;5.60;3.25;;;;;;;;;;5045888;28;20043;-42
2023/04/07 03:32:44;;;;;;;6.18;3.60;;;;;;;;;;5046367;28;20029;-41
2023/04/07 03:35:10;;;;;;;9.05;3.88;;;;;;;;;;5044870;28;20136;-41
2023/04/07 03:37:35;;;;;;;7.45;3.55;;;;;;;;;;5048067;28;20071;-41
2023/04/07 03:40:01;;;;;;;6.55;3.60;;;;;;;;;;5044528;28;20021;-39
2023/04/07 03:42:26;;;;;;;5.90;3.28;;;;;;;;;;5044954;28;20040;-41
2023/04/07 03:44:52;;;;;;;6.35;3.22;;;;;;;;;;5046887;28;20041;-41
2023/04/07 03:47:17;;;;;;;6.10;3.33;;;;;;;;;;5057849;28;20126;-41
2023/04/07 03:49:43;;;;;;;11.95;4.10;;;;;;;;;;5062342;28;20043;-41
2023/04/07 03:52:08;;;;;;;5.43;4.07;;;;;;;;;;5054506;28;20029;-42
2023/04/07 03:54:34;;;;;;;3.72;3.33;;;;;;;;;;5058751;28;20029;-41
2023/04/07 03:57:01;;;;;;;5.15;4.10;;;;;;;;;;5051020;28;20041;-42
2023/04/07 03:59:26;;;;;;;4.20;3.35;;;;;;;;;;5044219;28;20120;-41
2023/04/07 04:01:52;;;;;;;7.47;3.35;;;;;;;;;;5046879;28;20140;-41
2023/04/07 04:04:17;;;;;;;4.70;2.90;;;;;;;;;;5043138;28;20412;-41
2023/04/07 04:06:43;;;;;;;7.07;3.03;;;;;;;;;;5059776;28;20036;-44
2023/04/07 04:09:08;;;;;;;3.90;2.75;;;;;;;;;;5064788;28;20056;-41
2023/04/07 04:11:33;;;;;;;5.13;2.75;;;;;;;;;;5052178;28;20029;-42
2023/04/07 04:13:59;;;;;;;5.45;2.88;;;;;;;;;;5047092;28;20084;-41
2023/04/07 04:16:24;;;;;;;3.47;2.60;;;;;;;;;;5053684;28;20104;-41
2023/04/07 04:18:50;;;;;;;3.53;2.38;;;;;;;;;;5060900;28;20086;-41
2023/04/07 04:21:15;;;;;;;2.60;2.40;;;;;;;;;;5059628;28;20057;-41
2023/04/07 04:23:40;;;;;;;3.75;2.65;;;;;;;;;;5061799;28;20028;-41
2023/04/07 04:26:06;;;;;;;2.65;2.25;;;;;;;;;;5053268;28;20037;-40
2023/04/07 04:28:31;;;;;;;2.67;1.90;;;;;;;;;;5046649;28;20538;-41
2023/04/07 04:30:56;;;;;;;2.60;2.08;;;;;;;;;;5049257;28;20040;-41
2023/04/07 04:33:22;;;;;;;3.15;2.45;;;;;;;;;;5061002;28;20474;-41
2023/04/07 04:35:47;;;;;;;3.03;2.00;;;;;;;;;;5053467;28;20041;-41
2023/04/07 04:38:13;;;;;;;4.55;2.08;;;;;;;;;;5052314;28;20025;-41
2023/04/07 04:40:38;;;;;;;4.78;2.22;;;;;;;;;;5051897;28;20033;-41
2023/04/07 04:43:06;;;;;;;2.53;2.20;;;;;;;;;;5054428;28;20025;-41
2023/04/07 04:45:32;;;;;;;8.30;2.40;;;;;;;;;;5052364;28;20080;-41
2023/04/07 04:47:57;;;;;;;9.93;4.75;;;;;;;;;;5060802;28;20082;-41
2023/04/07 04:50:23;;;;;;;12.35;5.00;;;;;;;;;;5059909;28;20055;-41
2023/04/07 04:52:48;;;;;;;10.05;4.32;;;;;;;;;;5056828;28;20099;-42
2023/04/07 04:55:13;;;;;;;8.90;3.72;;;;;;;;;;5059889;28;20535;-48
2023/04/07 04:57:39;;;;;;;3.90;2.80;;;;;;;;;;5045767;28;20021;-41
2023/04/07 05:00:06;;;;;;;4.25;2.58;;;;;;;;;;5045548;28;20024;-42
2023/04/07 05:02:32;;;;;;;7.00;3.05;;;;;;;;;;5043173;28;20110;-41
2023/04/07 05:04:57;;;;;;;4.28;2.42;;;;;;;;;;5042867;28;20497;-41
2023/04/07 05:07:23;;;;;;;4.22;2.30;;;;;;;;;;5046365;28;20082;-41
2023/04/07 05:09:48;;;;;;;2.75;2.28;;;;;;;;;;5046130;28;20489;-42
2023/04/07 05:12:14;;;;;;;2.35;2.10;;;;;;;;;;5052315;28;20490;-41
2023/04/07 05:14:40;;;;;;;10.52;2.30;;;;;;;;;;5055219;28;20075;-41
2023/04/07 05:17:05;;;;;;;2.45;2.25;;;;;;;;;;5051295;28;20509;-43
2023/04/07 05:19:31;;;;;;;4.60;2.88;;;;;;;;;;5060550;28;20075;-40
2023/04/07 05:21:57;;;;;;;4.45;2.40;;;;;;;;;;5055532;28;20073;-41
2023/04/07 05:24:27;;;;;;;4.43;2.60;;;;;;;;;;5063378;28;20511;-42
2023/04/07 05:26:53;;;;;;;2.92;2.25;;;;;;;;;;5061451;28;20044;-41
2023/04/07 05:29:18;;;;;;;3.83;2.70;;;;;;;;;;5063737;28;20032;-41
2023/04/07 05:31:44;;;;;;;4.45;2.70;;;;;;;;;;5057302;28;20040;-44
2023/04/07 05:34:09;;;;;;;5.32;2.80;;;;;;;;;;5060761;28;20052;-41
2023/04/07 05:36:34;;;;;;;5.47;3.00;;;;;;;;;;5061276;28;20047;-41
2023/04/07 05:39:00;;;;;;;4.47;2.70;;;;;;;;;;5055823;28;20398;-46
2023/04/07 05:41:25;;;;;;;5.50;3.15;;;;;;;;;;5057773;28;20081;-41
2023/04/07 05:43:51;;;;;;;4.75;3.03;;;;;;;;;;5054630;28;20469;-41
2023/04/07 05:46:16;;;;;;;7.93;2.70;;;;;;;;;;5055698;28;20037;-41
2023/04/07 05:48:42;;;;;;;5.93;2.55;;;;;;;;;;5049494;28;20025;-43
2023/04/07 05:51:07;;;;;;;2.90;2.63;;;;;;;;;;5050075;28;20032;-41
2023/04/07 05:53:32;;;;;;;3.63;2.58;;;;;;;;;;5051438;28;20036;-41
2023/04/07 05:55:58;;;;;;;3.00;2.70;;;;;;;;;;5049612;28;20040;-45
2023/04/07 05:58:23;;;;;;;4.60;2.72;;;;;;;;;;5064749;28;20036;-41
2023/04/07 06:00:49;;;;;;;4.07;2.53;;;;;;;;;;5064648;28;20044;-44
2023/04/07 06:03:15;;;;;;;6.65;2.67;;;;;;;;;;5064469;28;20036;-41
2023/04/07 06:05:42;;;;;;;3.03;2.60;;;;;;;;;;5061322;28;20048;-41
2023/04/07 06:08:08;;;;;;;4.60;2.90;;;;;;;;;;5056812;28;20405;-47
2023/04/07 06:10:34;;;;;;;6.00;2.75;;;;;;;;;;5062078;28;20051;-41
2023/04/07 06:12:59;;;;;;;5.35;2.50;;;;;;;;;;5060237;28;20028;-41
2023/04/07 06:15:25;;;;;;;5.18;2.53;;;;;;;;;;5056259;28;20170;-41
2023/04/07 06:17:50;;;;;;;7.85;2.45;;;;;;;;;;5061149;28;20040;-41
2023/04/07 06:20:16;;;;;;;5.53;2.70;;;;;;;;;;5056282;28;20033;-45
2023/04/07 06:22:41;;;;;;;9.30;3.17;;;;;;;;;;5062879;28;20071;-40
2023/04/07 06:25:08;;;;;;;5.90;2.80;;;;;;;;;;5064173;28;20033;-41
2023/04/07 06:27:34;;;;;;;4.22;2.65;;;;;;;;;;5060847;28;20036;-42
2023/04/07 06:29:59;;;;;;;4.82;2.25;;;;;;;;;;5059132;28;20493;-41
2023/04/07 06:32:25;;;;;;;2.88;2.58;;;;;;;;;;5051926;28;20044;-44
2023/04/07 06:34:51;;;;;;;6.22;2.35;;;;;;;;;;5060869;28;20059;-44
2023/04/07 06:37:16;;;;;;;3.97;2.50;;;;;;;;;;5058283;28;20032;-41
2023/04/07 06:39:42;;;;;;;8.32;1.90;;;;;;;;;;5062787;28;20092;-42
2023/04/07 06:42:07;;;;;;;2.35;2.10;;;;;;;;;;5067765;28;20040;-43
2023/04/07 06:44:33;;;;;;;2.75;2.33;;;;;;;;;;5060293;28;20026;-40
2023/04/07 06:46:58;;;;;;;3.08;2.15;;;;;;;;;;5065560;28;20083;-41
2023/04/07 06:49:23;;;;;;;9.10;2.35;;;;;;;;;;5060391;28;20036;-42
2023/04/07 06:51:49;;;;;;;4.30;2.20;;;;;;;;;;5063556;28;20029;-40
2023/04/07 06:54:15;;;;;;;3.95;2.00;;;;;;;;;;5064177;28;20071;-41
2023/04/07 06:56:41;;;;;;;2.65;1.98;;;;;;;;;;5062826;28;20094;-41
2023/04/07 06:59:07;;;;;;;3.53;2.00;;;;;;;;;;5060128;28;20020;-44
2023/04/07 07:01:32;;;;;;;3.55;2.17;;;;;;;;;;5062229;28;20059;-40
2023/04/07 07:03:59;;;;;;;6.07;2.05;;;;;;;;;;5061792;28;20037;-41
2023/04/07 07:06:26;;;;;;;5.13;2.50;;;;;;;;;;5066833;28;20037;-42
2023/04/07 07:08:51;;;;;;;4.20;2.38;;;;;;;;;;5059496;28;20024;-42
2023/04/07 07:11:17;;;;;;;2.75;2.20;;;;;;;;;;5059864;28;20041;-41
2023/04/07 07:13:43;;;;;;;5.15;2.15;;;;;;;;;;5063743;28;20047;-40
2023/04/07 07:16:09;;;;;;;6.20;2.30;;;;;;;;;;5061052;28;20037;-42
2023/04/07 07:18:35;;;;;;;4.43;2.10;;;;;;;;;;5059485;28;20103;-42
2023/04/07 07:21:01;;;;;;;8.20;2.05;;;;;;;;;;5065555;28;20036;-41
2023/04/07 07:23:26;;;;;;;4.60;2.20;;;;;;;;;;5061730;28;20029;-41
2023/04/07 07:25:52;;;;;;;2.17;1.58;;;;;;;;;;5060416;28;20394;-41
2023/04/07 07:28:17;;;;;;;8.07;2.10;;;;;;;;;;5060219;28;20071;-41
2023/04/07 07:30:42;;;;;;;2.20;1.70;;;;;;;;;;5060439;28;20049;-41
2023/04/07 07:33:08;;;;;;;9.00;2.00;;;;;;;;;;5065846;28;20021;-42
2023/04/07 07:35:33;;;;;;;1.75;1.65;;;;;;;;;;5060291;28;20508;-41
2023/04/07 07:37:59;;;;;;;1.90;1.67;;;;;;;;;;5041686;28;20529;-40
2023/04/07 07:40:25;;;;;;;2.75;1.67;;;;;;;;;;5047151;28;20072;-41
2023/04/07 07:42:50;;;;;;;2.38;1.83;;;;;;;;;;5061039;28;20501;-39
2023/04/07 07:45:18;;;;;;;1.80;1.70;;;;;;;;;;5065536;28;20044;-42
2023/04/07 07:47:43;;;;;;;1.48;1.38;;;;;;;;;;5061412;28;20036;-40
2023/04/07 07:50:09;;;;;;;2.05;1.60;;;;;;;;;;5058272;28;20070;-40
2023/04/07 07:52:34;;;;;;;3.83;1.65;;;;;;;;;;5054534;28;20020;-43
2023/04/07 07:55:00;;;;;;;3.95;1.90;;;;;;;;;;5061420;28;20029;-41
2023/04/07 07:57:25;;;;;;;3.95;2.10;;;;;;;;;;5061873;28;20471;-41
2023/04/07 07:59:51;;;;;;;1.80;1.70;;;;;;;;;;5063278;28;20020;-41
2023/04/07 08:02:16;;;;;;;2.28;2.00;;;;;;;;;;5060662;28;20029;-41
2023/04/07 08:04:42;;;;;;;4.03;2.05;;;;;;;;;;5060697;28;20031;-41
2023/04/07 08:07:07;;;;;;;2.78;1.88;;;;;;;;;;5066259;28;20078;-41
2023/04/07 08:09:32;;;;;;;9.07;1.88;;;;;;;;;;5061543;28;20563;-41
2023/04/07 08:11:58;;;;;;;1.85;1.50;;;;;;;;;;5060833;28;20541;-43
2023/04/07 08:14:23;;;;;;;1.60;1.40;;;;;;;;;;5062233;28;20048;-41
2023/04/07 08:16:49;;;;;;;1.77;1.60;;;;;;;;;;5060362;28;20044;-42
2023/04/07 08:19:14;;;;;;;6.05;1.80;;;;;;;;;;5063964;28;20028;-42
2023/04/07 08:21:40;;;;;;;6.03;2.25;;;;;;;;;;5059503;28;20041;-42
2023/04/07 08:24:05;;;;;;;2.78;1.88;;;;;;;;;;5064447;28;20493;-41
2023/04/07 08:26:32;;;;;;;2.05;1.60;;;;;;;;;;5064589;28;20565;-41
2023/04/07 08:28:57;;;;;;;2.30;1.77;;;;;;;;;;5060960;28;20393;-41
2023/04/07 08:31:23;;;;;;;3.65;1.70;;;;;;;;;;5057799;28;20048;-41
2023/04/07 08:33:52;;;;;;;4.20;1.90;;;;;;;;;;5054865;28;20473;-41
2023/04/07 08:36:21;;;;;;;6.75;2.03;;;;;;;;;;5059993;28;20525;-41
2023/04/07 08:38:47;;;;;;;4.78;1.50;;;;;;;;;;5064990;28;20033;-41
2023/04/07 08:41:18;;;;;;;6.25;1.92;;;;;;;;;;5078361;28;20040;-41
2023/04/07 08:43:45;;;;;;;8.40;1.98;;;;;;;;;;5063585;28;20025;-41
2023/04/07 08:46:12;;;;;;;7.10;1.80;;;;;;;;;;5066767;28;20028;-41
2023/04/07 08:48:37;;;;;;;2.90;2.15;;;;;;;;;;5059433;28;20040;-43
2023/04/07 08:51:05;;;;;;;2.03;1.80;;;;;;;;;;5063318;28;20041;-41
2023/04/07 08:53:40;;;;;;;6.65;2.45;;;;;;;;;;5064235;28;20036;-41
2023/04/07 08:56:06;;;;;;;5.30;1.77;;;;;;;;;;5057668;28;20047;-41
2023/04/07 08:58:32;;;;;;;3.85;1.70;;;;;;;;;;5059035;28;20078;-40
2023/04/07 09:00:58;;;;;;;3.83;2.17;;;;;;;;;;5057222;28;20527;-41
2023/04/07 09:03:25;;;;;;;4.43;2.08;;;;;;;;;;5060313;28;20033;-41
2023/04/07 09:05:51;;;;;;;4.45;1.80;;;;;;;;;;5058369;28;20399;-42
2023/04/07 09:08:16;;;;;;;2.17;1.98;;;;;;;;;;5061576;28;20070;-41
2023/04/07 09:10:41;;;;;;;4.63;2.17;;;;;;;;;;5060416;28;20036;-41
2023/04/07 09:13:07;;;;;;;3.70;2.50;;;;;;;;;;5058122;28;20421;-43
2023/04/07 09:15:32;;;;;;;5.57;2.83;;;;;;;;;;5062425;28;20044;-41
2023/04/07 09:17:58;;;;;;;7.03;2.83;;;;;;;;;;5060662;28;20020;-41
2023/04/07 09:20:24;;;;;;;5.55;2.10;;;;;;;;;;5058890;28;20128;-44
2023/04/07 09:22:50;;;;;;;4.78;1.70;;;;;;;;;;5057564;28;20032;-42
2023/04/07 09:25:17;;;;;;;2.63;1.48;;;;;;;;;;5057160;28;20024;-42
2023/04/07 09:28:02;;;;;;;1.60;1.50;;;;;;;;;;5060605;28;20025;-41
2023/04/07 09:30:28;;;;;;;2.38;1.58;;;;;;;;;;5053154;28;20052;-41
2023/04/07 09:32:54;;;;;;;1.63;1.52;;;;;;;;;;5056259;28;20432;-42
2023/04/07 09:35:22;;;;;;;2.33;1.60;;;;;;;;;;5058219;28;20033;-41
2023/04/07 09:38:03;;;;;;;3.67;1.88;;;;;;;;;;5056881;28;20564;-42
2023/04/07 09:40:29;;;;;;;7.18;2.00;;;;;;;;;;5054572;28;20048;-42
2023/04/07 09:42:56;;;;;;;4.15;2.40;;;;;;;;;;5058295;28;20033;-40
2023/04/07 09:45:28;;;;;;;2.70;2.00;;;;;;;;;;5052981;28;20048;-42
2023/04/07 09:47:54;;;;;;;3.38;2.00;;;;;;;;;;5054892;28;20128;-41
2023/04/07 09:51:03;;;;;;;11.30;2.40;;;;;;;;;;5057244;28;20099;-41
2023/04/07 09:53:48;;;;;;;5.75;2.20;;;;;;;;;;5055293;28;20032;-42
2023/04/07 09:56:16;;;;;;;4.30;1.98;;;;;;;;;;5057466;28;20438;-44
2023/04/07 09:58:43;;;;;;;10.38;2.50;;;;;;;;;;5059444;28;20025;-41
2023/04/07 10:01:10;;;;;;;3.88;2.10;;;;;;;;;;5049936;28;20057;-42
2023/04/07 10:03:36;;;;;;;3.97;2.10;;;;;;;;;;5041073;28;20485;-44
2023/04/07 10:06:03;;;;;;;5.55;2.40;;;;;;;;;;5042919;28;20610;-43
2023/04/07 10:08:31;;;;;;;6.60;2.30;;;;;;;;;;5041024;28;20052;-44
2023/04/07 10:10:58;;;;;;;3.97;2.13;;;;;;;;;;5044266;28;20598;-42
2023/04/07 10:13:24;;;;;;;8.23;2.35;;;;;;;;;;5058300;28;20079;-44
2023/04/07 10:15:51;;;;;;;2.00;1.75;;;;;;;;;;5050734;28;20045;-45
2023/04/07 10:18:19;;;;;;;5.03;2.25;;;;;;;;;;5046749;28;20029;-44
2023/04/07 10:20:46;;;;;;;4.18;2.15;;;;;;;;;;5046233;28;20048;-42
2023/04/07 10:23:21;;;;;;;2.78;1.92;;;;;;;;;;5042385;28;20048;-42
2023/04/07 10:25:51;;;;;;;3.83;1.60;;;;;;;;;;5046937;28;20083;-41
2023/04/07 10:28:20;;;;;;;2.47;1.70;;;;;;;;;;5059444;28;20512;-42
2023/04/07 10:30:47;;;;;;;4.40;2.03;;;;;;;;;;5059445;28;20055;-43
2023/04/07 10:33:12;;;;;;;6.65;1.77;;;;;;;;;;5062654;28;20052;-41
2023/04/07 10:36:02;;;;;;;6.15;1.90;;;;;;;;;;5059608;28;20472;-42
2023/04/07 10:38:28;;;;;;;9.93;1.90;;;;;;;;;;5056574;28;20043;-42
2023/04/07 10:40:53;;;;;;;3.50;1.65;;;;;;;;;;5055469;28;20083;-41
2023/04/07 10:43:48;;;;;;;3.08;1.98;;;;;;;;;;5060414;28;20060;-43
2023/04/07 10:46:13;;;;;;;3.47;1.70;;;;;;;;;;5053175;28;20051;-41
2023/04/07 10:48:39;;;;;;;3.97;1.63;;;;;;;;;;5045937;28;20481;-41
2023/04/07 10:51:04;;;;;;;3.83;1.95;;;;;;;;;;5043274;28;20041;-43
2023/04/07 10:53:30;;;;;;;8.70;2.05;;;;;;;;;;5043643;28;20075;-42
2023/04/07 10:55:58;;;;;;;6.65;2.22;;;;;;;;;;5045898;28;20049;-42
2023/04/07 10:58:30;;;;;;;5.80;2.75;;;;;;;;;;5048306;28;20044;-42
2023/04/07 11:00:55;;;;;;;7.88;2.17;;;;;;;;;;5047463;28;20049;-43
2023/04/07 11:03:21;;;;;;;4.60;1.75;;;;;;;;;;5047348;28;20583;-43
2023/04/07 11:05:47;;;;;;;1.88;1.52;;;;;;;;;;5039457;28;20048;-42
2023/04/07 11:08:12;;;;;;;3.60;1.67;;;;;;;;;;5045321;28;20021;-42
2023/04/07 11:10:37;;;;;;;3.45;1.77;;;;;;;;;;5042372;28;20493;-42
2023/04/07 11:13:07;;;;;;;3.28;2.08;;;;;;;;;;5043453;28;20064;-42
2023/04/07 11:15:36;;;;;;;3.53;2.00;;;;;;;;;;5041078;28;20045;-41
2023/04/07 11:18:10;;;;;;;5.70;1.75;;;;;;;;;;5044459;28;20618;-42
2023/04/07 11:20:57;;;;;;;2.38;1.80;;;;;;;;;;5040063;28;20079;-44
2023/04/07 11:23:24;;;;;;;5.18;1.83;;;;;;;;;;5039959;28;20033;-41
2023/04/07 11:25:51;;;;;;;3.55;1.73;;;;;;;;;;5046038;28;20068;-43
2023/04/07 11:28:18;;;;;;;2.63;1.80;;;;;;;;;;5041247;28;20029;-42
2023/04/07 11:30:50;;;;;;;2.85;1.42;;;;;;;;;;5048545;28;20050;-45
2023/04/07 11:33:20;;;;;;;3.10;2.00;;;;;;;;;;5065339;28;20031;-45
2023/04/07 11:35:55;;;;;;;4.03;1.63;;;;;;;;;;5052311;28;20073;-45
2023/04/07 11:38:22;;;;;;;7.32;1.73;;;;;;;;;;5039838;28;20021;-42
2023/04/07 11:40:48;;;;;;;6.55;1.85;;;;;;;;;;5046976;28;20063;-44
2023/04/07 11:43:25;;;;;;;2.22;1.80;;;;;;;;;;5046629;28;20478;-46
2023/04/07 11:46:13;;;;;;;5.55;1.65;;;;;;;;;;5044587;28;20045;-41
2023/04/07 11:48:40;;;;;;;2.45;1.80;;;;;;;;;;5062344;28;20036;-42
2023/04/07 11:51:06;;;;;;;2.33;1.73;;;;;;;;;;5061792;28;20545;-42
2023/04/07 11:53:36;;;;;;;8.68;1.70;;;;;;;;;;5061319;28;20029;-42
2023/04/07 11:56:06;;;;;;;6.82;1.90;;;;;;;;;;5056657;28;20401;-48
2023/04/07 11:58:32;;;;;;;4.85;1.38;;;;;;;;;;5062407;28;20052;-44
2023/04/07 12:01:03;;;;;;;4.05;1.63;;;;;;;;;;5061052;28;20053;-42
2023/04/07 12:03:29;;;;;;;4.00;1.35;;;;;;;;;;5058280;28;20044;-51
2023/04/07 12:05:54;;;;;;;1.92;1.20;;;;;;;;;;5054140;28;20049;-42
2023/04/07 12:08:20;;;;;;;7.65;1.30;;;;;;;;;;5043493;28;20021;-45
2023/04/07 12:10:47;;;;;;;3.63;1.20;;;;;;;;;;5041457;28;20124;-42
2023/04/07 12:13:12;;;;;;;12.38;1.20;;;;;;;;;;5045834;28;20056;-42
2023/04/07 12:15:38;;;;;;;1.38;1.02;;;;;;;;;;5049813;28;20425;-42
2023/04/07 12:18:03;;;;;;;1.48;1.13;;;;;;;;;;5058068;28;20059;-43
2023/04/07 12:20:29;;;;;;;1.98;1.10;;;;;;;;;;5057025;28;20047;-47
2023/04/07 12:22:54;;;;;;;5.13;1.30;;;;;;;;;;5044428;28;20030;-43
2023/04/07 12:25:20;;;;;;;9.10;1.40;;;;;;;;;;5050165;28;20056;-42
2023/04/07 12:27:45;;;;;;;1.77;1.42;;;;;;;;;;5047100;28;20040;-42
2023/04/07 12:30:12;;;;;;;7.50;1.13;;;;;;;;;;5050001;28;20033;-42
2023/04/07 12:32:37;;;;;;;2.53;1.00;;;;;;;;;;5058586;28;20546;-44
2023/04/07 12:35:03;;;;;;;1.35;1.13;;;;;;;;;;5060048;28;20024;-44
2023/04/07 12:37:28;;;;;;;1.42;1.20;;;;;;;;;;5066054;28;20465;-47
2023/04/07 12:39:54;;;;;;;2.30;1.00;;;;;;;;;;5061542;28;20060;-44
2023/04/07 12:42:19;;;;;;;3.60;1.17;;;;;;;;;;5059001;28;20040;-44
2023/04/07 12:44:45;;;;;;;1.20;1.02;;;;;;;;;;5063930;28;20032;-42
2023/04/07 12:47:11;;;;;;;5.88;1.33;;;;;;;;;;5058428;28;20037;-42
2023/04/07 12:49:36;;;;;;;3.47;1.27;;;;;;;;;;5057563;28;20025;-44
2023/04/07 12:52:02;;;;;;;1.77;1.48;;;;;;;;;;5058612;28;20043;-43
2023/04/07 12:54:27;;;;;;;1.17;1.08;;;;;;;;;;5063485;28;20477;-43
2023/04/07 12:56:53;;;;;;;6.55;1.45;;;;;;;;;;5054667;28;20458;-43
2023/04/07 12:59:18;;;;;;;1.13;1.08;;;;;;;;;;5058941;28;20044;-43
2023/04/07 13:01:45;;;;;;;1.05;1.05;;;;;;;;;;5058534;28;20049;-42
2023/04/07 13:04:10;;;;;;;2.72;1.05;;;;;;;;;;5056450;28;20103;-47
2023/04/07 13:06:36;;;;;;;1.60;0.90;;;;;;;;;;5062238;28;20116;-45
2023/04/07 13:09:01;;;;;;;3.10;1.15;;;;;;;;;;5060899;28;20373;-42
2023/04/07 13:11:26;;;;;;;0.98;0.90;;;;;;;;;;5074097;28;20029;-45
2023/04/07 13:13:52;;;;;;;1.58;1.15;;;;;;;;;;5061303;28;20048;-42
2023/04/07 13:16:17;;;;;;;2.83;1.27;;;;;;;;;;5061480;28;20446;-43
2023/04/07 13:18:43;;;;;;;1.63;1.00;;;;;;;;;;5062613;28;20104;-43
2023/04/07 13:21:09;;;;;;;0.70;0.70;;;;;;;;;;5056297;28;20033;-41
2023/04/07 13:23:35;;;;;;;1.50;0.90;;;;;;;;;;5053575;28;20025;-42
2023/04/07 13:26:00;;;;;;;1.50;1.08;;;;;;;;;;5054863;28;20045;-46
2023/04/07 13:28:26;;;;;;;2.15;0.80;;;;;;;;;;5038949;28;20385;-44
2023/04/07 13:30:52;;;;;;;7.65;1.02;;;;;;;;;;5047208;28;20058;-41
2023/04/07 13:33:17;;;;;;;3.75;1.00;;;;;;;;;;5054479;28;20036;-42
2023/04/07 13:35:42;;;;;;;1.02;0.88;;;;;;;;;;5061985;28;20040;-42
2023/04/07 13:38:08;;;;;;;1.05;0.77;;;;;;;;;;5059239;28;20032;-45
2023/04/07 13:40:33;;;;;;;2.42;0.95;;;;;;;;;;5058202;28;20037;-42
2023/04/07 13:42:59;;;;;;;4.15;0.80;;;;;;;;;;5037053;28;20033;-45
2023/04/07 13:45:25;;;;;;;3.67;0.95;;;;;;;;;;5042442;28;20068;-42
2023/04/07 13:47:51;;;;;;;3.88;1.00;;;;;;;;;;5040827;28;20462;-44
2023/04/07 13:50:16;;;;;;;2.03;0.93;;;;;;;;;;5034840;28;20045;-45
2023/04/07 13:52:41;;;;;;;3.65;1.00;;;;;;;;;;5043314;28;20090;-42
2023/04/07 13:55:07;;;;;;;7.03;0.93;;;;;;;;;;5044424;28;20033;-42
2023/04/07 13:57:33;;;;;;;4.28;0.82;;;;;;;;;;5040578;28;20041;-43
2023/04/07 13:59:58;;;;;;;1.23;0.98;;;;;;;;;;5041945;28;20036;-44
2023/04/07 14:02:26;;;;;;;1.10;1.00;;;;;;;;;;5033079;28;20049;-42
2023/04/07 14:04:52;;;;;;;3.72;1.08;;;;;;;;;;5043225;28;20040;-42
2023/04/07 14:07:17;;;;;;;1.98;1.10;;;;;;;;;;5043340;28;20049;-42
2023/04/07 14:09:43;;;;;;;1.55;1.00;;;;;;;;;;5039658;28;20032;-43
2023/04/07 14:12:09;;;;;;;2.72;0.88;;;;;;;;;;5039151;28;20041;-42
2023/04/07 14:14:36;;;;;;;2.05;1.05;;;;;;;;;;5043660;28;20128;-46
2023/04/07 14:17:02;;;;;;;5.32;1.10;;;;;;;;;;5042614;28;20402;-42
2023/04/07 14:19:28;;;;;;;12.20;1.17;;;;;;;;;;5039228;28;20028;-47
2023/04/07 14:21:54;;;;;;;4.63;1.08;;;;;;;;;;5037644;28;20155;-47
2023/04/07 14:24:20;;;;;;;0.90;0.90;;;;;;;;;;5043919;28;20044;-42
2023/04/07 14:26:45;;;;;;;6.65;1.38;;;;;;;;;;5041564;28;20494;-47
2023/04/07 14:29:13;;;;;;;2.08;0.95;;;;;;;;;;5046067;28;20064;-42
2023/04/07 14:31:39;;;;;;;1.90;0.80;;;;;;;;;;5048081;28;20444;-44
2023/04/07 14:34:06;;;;;;;2.15;0.98;;;;;;;;;;5045412;28;20025;-42
2023/04/07 14:36:31;;;;;;;1.88;0.95;;;;;;;;;;5044342;28;20036;-43
2023/04/07 14:38:57;;;;;;;4.85;1.05;;;;;;;;;;5043541;28;20037;-45
2023/04/07 14:41:25;;;;;;;2.80;1.00;;;;;;;;;;5047571;28;20132;-43